createdAt,value
2019-01-28T00:01:00.077Z,114.82
2019-01-28T00:03:28.246Z,107.22
2019-01-28T00:05:56.133Z,114.05
2019-01-28T00:08:23.888Z,114.40
2019-01-28T00:10:51.880Z,107.78
2019-01-28T00:13:19.814Z,109.78
2019-01-28T00:15:49.857Z,109.85
2019-01-28T00:18:20.817Z,108.52
2019-01-28T00:20:49.707Z,115.67
2019-01-28T00:23:17.647Z,110.17
2019-01-28T00:25:52.435Z,111.72
2019-01-28T00:28:20.452Z,105.92
2019-01-28T00:30:48.567Z,112.57
2019-01-28T00:33:16.488Z,114.52
2019-01-28T00:35:45.174Z,114.67
2019-01-28T00:38:13.045Z,111.45
2019-01-28T00:40:40.851Z,110.92
2019-01-28T00:43:09.767Z,112.30
2019-01-28T00:45:38.604Z,112.95
2019-01-28T00:48:07.486Z,117.40
2019-01-28T00:50:35.155Z,119.80
2019-01-28T00:53:03.779Z,117.35
2019-01-28T00:55:31.713Z,116.57
2019-01-28T00:57:59.717Z,120.57
2019-01-28T01:00:28.272Z,118.25
2019-01-28T01:02:57.458Z,114.88
2019-01-28T01:05:25.222Z,113.03
2019-01-28T01:07:58.214Z,112.80
2019-01-28T01:10:27.875Z,114.35
2019-01-28T01:12:55.546Z,121.35
2019-01-28T01:15:23.307Z,127.15
2019-01-28T01:17:51.012Z,126.02
2019-01-28T01:20:19.139Z,127.02
2019-01-28T01:22:48.157Z,137.05
2019-01-28T01:25:16.068Z,136.25
2019-01-28T01:27:43.879Z,129.57
2019-01-28T01:30:14.983Z,122.70
2019-01-28T01:32:43.895Z,131.40
2019-01-28T01:35:12.756Z,127.20
2019-01-28T01:37:40.702Z,121.87
2019-01-28T01:40:11.253Z,120.85
2019-01-28T01:42:39.473Z,121.60
2019-01-28T01:45:09.234Z,115.80
2019-01-28T01:47:37.048Z,114.85
2019-01-28T01:50:06.902Z,108.72
2019-01-28T01:52:35.011Z,98.72
2019-01-28T01:55:05.107Z,100.05
2019-01-28T01:57:33.506Z,91.65
2019-01-28T02:00:06.979Z,92.40
2019-01-28T02:02:36.202Z,90.05
2019-01-28T02:05:05.690Z,91.20
2019-01-28T02:07:34.290Z,91.02
2019-01-28T02:10:03.780Z,88.10
2019-01-28T02:12:32.157Z,80.75
2019-01-28T02:15:01.997Z,81.60
2019-01-28T02:17:30.347Z,83.30
2019-01-28T02:20:00.676Z,78.62
2019-01-28T02:22:28.951Z,77.03
2019-01-28T02:24:57.322Z,76.55
2019-01-28T02:27:25.505Z,74.27
2019-01-28T02:29:53.791Z,70.70
2019-01-28T02:32:22.056Z,77.03
2019-01-28T02:34:51.985Z,77.87
2019-01-28T02:37:20.251Z,77.65
2019-01-28T02:39:48.621Z,77.60
2019-01-28T02:42:16.708Z,86.40
2019-01-28T02:44:45.028Z,85.25
2019-01-28T02:47:15.406Z,82.40
2019-01-28T02:49:44.115Z,83.70
2019-01-28T02:52:11.812Z,80.50
2019-01-28T02:54:41.891Z,79.58
2019-01-28T02:57:09.688Z,74.92
2019-01-28T02:59:37.376Z,74.92
2019-01-28T03:02:05.267Z,77.45
2019-01-28T03:04:32.962Z,71.55
2019-01-28T03:07:04.445Z,81.15
2019-01-28T03:09:34.888Z,75.40
2019-01-28T03:12:04.287Z,75.72
2019-01-28T03:14:32.490Z,77.55
2019-01-28T03:17:09.666Z,72.78
2019-01-28T03:19:38.952Z,74.27
2019-01-28T03:22:08.786Z,67.58
2019-01-28T03:24:37.142Z,67.47
2019-01-28T03:27:05.422Z,64.50
2019-01-28T03:29:34.535Z,65.42
2019-01-28T03:32:03.166Z,55.75
2019-01-28T03:34:31.497Z,58.65
2019-01-28T03:36:59.782Z,55.78
2019-01-28T03:39:27.561Z,58.80
2019-01-28T03:41:56.643Z,60.98
2019-01-28T03:44:24.512Z,62.05
2019-01-28T03:46:52.330Z,64.20
2019-01-28T03:49:20.224Z,62.98
2019-01-28T03:51:52.074Z,62.25
2019-01-28T03:54:20.515Z,70.90
2019-01-28T03:56:49.515Z,76.75
2019-01-28T03:59:17.923Z,77.97
2019-01-28T04:01:48.668Z,72.05
2019-01-28T04:04:17.351Z,74.32
2019-01-28T04:06:46.470Z,71.95
2019-01-28T04:09:14.713Z,75.65
2019-01-28T04:11:42.945Z,73.95
2019-01-28T04:14:11.282Z,66.82
2019-01-28T04:16:39.994Z,70.28
2019-01-28T04:19:08.231Z,63.25
2019-01-28T04:21:36.501Z,59.75
2019-01-28T04:24:05.306Z,62.55
2019-01-28T04:26:33.783Z,61.28
2019-01-28T04:29:03.264Z,60.12
2019-01-28T04:31:31.724Z,62.78
2019-01-28T04:33:59.504Z,66.95
2019-01-28T04:36:27.398Z,68.45
2019-01-28T04:38:56.839Z,62.30
2019-01-28T04:41:25.844Z,62.03
2019-01-28T04:43:53.841Z,60.48
2019-01-28T04:46:21.632Z,63.28
2019-01-28T04:48:55.742Z,70.30
2019-01-28T04:51:24.009Z,71.17
2019-01-28T04:53:53.053Z,82.30
2019-01-28T04:56:22.137Z,85.83
2019-01-28T04:58:50.023Z,77.70
2019-01-28T05:01:19.060Z,83.07
2019-01-28T05:03:46.971Z,87.05
2019-01-28T05:06:15.309Z,80.65
2019-01-28T05:08:44.009Z,78.02
2019-01-28T05:11:12.264Z,72.90
2019-01-28T05:13:40.552Z,66.67
2019-01-28T05:16:08.839Z,65.95
2019-01-28T05:18:37.153Z,69.15
2019-01-28T05:21:05.373Z,68.35
2019-01-28T05:23:33.180Z,63.30
2019-01-28T05:26:01.047Z,59.90
2019-01-28T05:28:28.929Z,57.25
2019-01-28T05:30:57.252Z,64.20
2019-01-28T05:33:24.966Z,71.07
2019-01-28T05:35:54.925Z,67.12
2019-01-28T05:38:23.676Z,68.15
2019-01-28T05:40:51.468Z,65.30
2019-01-28T05:43:19.144Z,67.50
2019-01-28T05:45:47.976Z,66.87
2019-01-28T05:48:15.948Z,80.38
2019-01-28T05:50:44.629Z,70.32
2019-01-28T05:53:12.527Z,62.73
2019-01-28T05:55:42.669Z,66.20
2019-01-28T05:58:10.416Z,62.40
2019-01-28T06:00:46.124Z,60.05
2019-01-28T06:03:14.423Z,65.42
2019-01-28T06:05:42.614Z,62.50
2019-01-28T06:08:10.547Z,61.50
2019-01-28T06:10:38.593Z,60.10
2019-01-28T06:13:06.600Z,65.97
2019-01-28T06:15:35.697Z,63.40
2019-01-28T06:18:04.160Z,67.90
2019-01-28T06:20:32.273Z,70.40
2019-01-28T06:23:00.012Z,73.07
2019-01-28T06:25:29.049Z,70.42
2019-01-28T06:27:56.784Z,70.15
2019-01-28T06:30:26.922Z,69.70
2019-01-28T06:32:55.351Z,65.42
2019-01-28T06:35:23.639Z,67.15
2019-01-28T06:37:52.947Z,71.57
2019-01-28T06:40:23.617Z,76.57
2019-01-28T06:42:55.335Z,75.35
2019-01-28T06:45:23.687Z,94.03
2019-01-28T06:47:52.317Z,103.00
2019-01-28T06:50:20.340Z,95.10
2019-01-28T06:52:49.869Z,86.17
2019-01-28T06:55:18.117Z,88.22
2019-01-28T06:57:45.959Z,88.62
2019-01-28T07:00:24.086Z,91.42
2019-01-28T07:02:52.754Z,108.30
2019-01-28T07:05:20.784Z,104.25
2019-01-28T07:07:49.242Z,93.52
2019-01-28T07:10:17.409Z,103.38
2019-01-28T07:12:45.710Z,108.05
2019-01-28T07:15:14.578Z,112.30
2019-01-28T07:17:42.378Z,118.65
2019-01-28T07:20:13.246Z,109.00
2019-01-28T07:22:41.094Z,116.53
2019-01-28T07:25:09.242Z,97.27
2019-01-28T07:27:38.033Z,91.30
2019-01-28T07:30:07.787Z,94.37
2019-01-28T07:32:36.389Z,101.38
2019-01-28T07:35:05.873Z,95.85
2019-01-28T07:37:35.377Z,101.27
2019-01-28T07:40:06.020Z,96.20
2019-01-28T07:42:34.380Z,96.55
2019-01-28T07:45:04.925Z,105.05
2019-01-28T07:47:33.732Z,105.95
2019-01-28T07:50:02.646Z,105.90
2019-01-28T07:52:31.541Z,111.40
2019-01-28T07:54:59.566Z,113.52
2019-01-28T07:57:27.283Z,119.00
2019-01-28T07:59:55.053Z,114.97
2019-01-28T08:02:22.928Z,97.57
2019-01-28T08:04:50.805Z,92.33
2019-01-28T08:07:18.481Z,90.25
2019-01-28T08:09:46.381Z,92.20
2019-01-28T08:12:14.446Z,83.52
2019-01-28T08:14:42.255Z,79.05
2019-01-28T08:17:10.190Z,78.60
2019-01-28T08:19:37.987Z,85.57
2019-01-28T08:22:06.011Z,81.30
2019-01-28T08:24:33.965Z,76.10
2019-01-28T08:27:03.914Z,67.80
2019-01-28T08:29:32.112Z,65.72
2019-01-28T08:32:01.183Z,64.10
2019-01-28T08:34:30.653Z,67.40
2019-01-28T08:37:00.984Z,63.68
2019-01-28T08:39:29.235Z,62.33
2019-01-28T08:41:57.556Z,64.37
2019-01-28T08:44:25.778Z,67.85
2019-01-28T08:46:55.334Z,66.28
2019-01-28T08:49:23.558Z,73.20
2019-01-28T08:51:52.251Z,65.83
2019-01-28T08:54:20.281Z,72.45
2019-01-28T08:56:49.190Z,67.53
2019-01-28T08:59:16.960Z,72.37
2019-01-28T09:01:45.772Z,69.82
2019-01-28T09:04:14.051Z,64.12
2019-01-28T09:06:45.093Z,64.90
2019-01-28T09:09:13.644Z,62.67
2019-01-28T09:11:41.779Z,65.10
2019-01-28T09:14:09.479Z,64.10
2019-01-28T09:16:37.246Z,59.10
2019-01-28T09:19:05.177Z,65.97
2019-01-28T09:21:33.195Z,64.03
2019-01-28T09:24:04.263Z,59.08
2019-01-28T09:26:32.089Z,61.25
2019-01-28T09:29:00.464Z,61.02
2019-01-28T09:31:28.335Z,62.48
2019-01-28T09:33:59.889Z,64.72
2019-01-28T09:36:27.815Z,64.90
2019-01-28T09:38:56.969Z,60.55
2019-01-28T09:41:25.085Z,63.92
2019-01-28T09:43:53.391Z,61.35
2019-01-28T09:46:21.910Z,62.17
2019-01-28T09:48:49.864Z,66.30
2019-01-28T09:51:18.729Z,59.73
2019-01-28T09:53:46.617Z,57.53
2019-01-28T09:56:14.511Z,60.78
2019-01-28T09:58:42.670Z,56.08
2019-01-28T10:01:10.489Z,52.73
2019-01-28T10:03:38.271Z,56.58
2019-01-28T10:06:06.240Z,53.70
2019-01-28T10:08:33.917Z,53.68
2019-01-28T10:11:02.046Z,52.62
2019-01-28T10:13:30.957Z,44.93
2019-01-28T10:15:59.010Z,44.08
2019-01-28T10:18:26.683Z,41.85
2019-01-28T10:20:54.467Z,42.73
2019-01-28T10:23:22.516Z,42.50
2019-01-28T10:25:51.214Z,46.35
2019-01-28T10:28:19.027Z,43.80
2019-01-28T10:30:48.363Z,48.28
2019-01-28T10:33:16.579Z,51.10
2019-01-28T10:35:45.191Z,49.45
2019-01-28T10:38:13.206Z,48.90
2019-01-28T10:40:43.261Z,47.98
2019-01-28T10:43:11.466Z,46.50
2019-01-28T10:45:39.570Z,43.00
2019-01-28T10:48:08.718Z,37.35
2019-01-28T10:50:37.480Z,37.53
2019-01-28T10:53:05.600Z,37.93
2019-01-28T10:55:33.556Z,36.30
2019-01-28T10:58:03.617Z,30.50
2019-01-28T11:00:34.831Z,30.43
2019-01-28T11:03:03.817Z,29.32
2019-01-28T11:05:33.237Z,29.45
2019-01-28T11:08:01.202Z,33.38
2019-01-28T11:10:29.766Z,29.98
2019-01-28T11:12:59.543Z,31.23
2019-01-28T11:15:28.512Z,33.98
2019-01-28T11:17:58.327Z,34.95
2019-01-28T11:20:26.713Z,34.78
2019-01-28T11:22:54.801Z,29.55
2019-01-28T11:25:25.072Z,25.77
2019-01-28T11:27:54.304Z,27.52
2019-01-28T11:30:27.887Z,27.50
2019-01-28T11:32:55.631Z,24.05
2019-01-28T11:35:24.104Z,22.37
2019-01-28T11:37:56.278Z,21.20
2019-01-28T11:40:24.384Z,22.22
2019-01-28T11:42:52.459Z,22.93
2019-01-28T11:45:26.281Z,20.35
2019-01-28T11:47:54.309Z,22.10
2019-01-28T11:50:22.836Z,20.60
2019-01-28T11:52:51.219Z,21.73
2019-01-28T11:55:22.203Z,22.27
2019-01-28T11:57:51.228Z,22.65
2019-01-28T12:00:30.072Z,22.13
2019-01-28T12:02:57.817Z,20.80
2019-01-28T12:05:25.989Z,19.70
2019-01-28T12:07:54.854Z,20.50
2019-01-28T12:10:23.106Z,20.05
2019-01-28T12:12:51.127Z,19.42
2019-01-28T12:15:22.787Z,23.00
2019-01-28T12:17:50.582Z,21.23
2019-01-28T12:20:20.190Z,21.37
2019-01-28T12:22:48.188Z,22.37
2019-01-28T12:25:16.505Z,24.00
2019-01-28T12:27:47.979Z,22.58
2019-01-28T12:30:20.245Z,24.15
2019-01-28T12:32:48.929Z,23.38
2019-01-28T12:35:17.520Z,21.60
2019-01-28T12:37:45.601Z,24.35
2019-01-28T12:40:14.985Z,24.50
2019-01-28T12:42:43.247Z,22.50
2019-01-28T12:45:14.756Z,23.47
2019-01-28T12:47:42.622Z,22.70
2019-01-28T12:50:10.982Z,23.57
2019-01-28T12:52:38.806Z,22.22
2019-01-28T12:55:10.086Z,25.27
2019-01-28T12:57:37.809Z,23.52
2019-01-28T13:00:08.596Z,23.90
2019-01-28T13:02:36.550Z,23.47
2019-01-28T13:05:06.346Z,21.93
2019-01-28T13:07:34.260Z,24.25
2019-01-28T13:10:05.351Z,24.95
2019-01-28T13:12:34.080Z,24.98
2019-01-28T13:15:05.703Z,25.75
2019-01-28T13:17:33.516Z,25.95
2019-01-28T13:20:01.321Z,26.42
2019-01-28T13:22:29.291Z,25.45
2019-01-28T13:24:59.239Z,25.50
2019-01-28T13:27:27.111Z,24.45
2019-01-28T13:29:54.868Z,27.65
2019-01-28T13:32:22.740Z,26.87
2019-01-28T13:34:51.450Z,28.55
2019-01-28T13:37:19.333Z,26.95
2019-01-28T13:39:47.170Z,27.75
2019-01-28T13:42:15.354Z,27.87
2019-01-28T13:44:46.721Z,28.27
2019-01-28T13:47:14.995Z,26.75
2019-01-28T13:49:42.786Z,26.30
2019-01-28T13:52:11.226Z,26.27
2019-01-28T13:54:39.724Z,25.57
2019-01-28T13:57:07.597Z,25.52
2019-01-28T13:59:35.425Z,26.77
2019-01-28T14:02:04.620Z,24.67
2019-01-28T14:04:32.437Z,21.62
2019-01-28T14:07:02.829Z,23.60
2019-01-28T14:09:30.574Z,23.67
2019-01-28T14:11:58.271Z,23.47
2019-01-28T14:14:26.773Z,21.33
2019-01-28T14:16:54.598Z,23.77
2019-01-28T14:19:22.387Z,22.93
2019-01-28T14:21:50.205Z,25.05
2019-01-28T14:24:19.636Z,23.98
2019-01-28T14:26:49.674Z,24.02
2019-01-28T14:29:17.531Z,26.82
2019-01-28T14:31:45.479Z,24.55
2019-01-28T14:34:13.358Z,23.65
2019-01-28T14:36:41.291Z,24.92
2019-01-28T14:39:13.678Z,27.25
2019-01-28T14:41:40.955Z,24.37
2019-01-28T14:44:08.990Z,26.20
2019-01-28T14:46:36.677Z,23.95
2019-01-28T14:49:05.477Z,24.60
2019-01-28T14:51:33.316Z,23.60
2019-01-28T14:54:05.417Z,28.32
2019-01-28T14:56:33.612Z,26.35
2019-01-28T14:59:01.518Z,23.42
2019-01-28T15:01:29.231Z,22.30
2019-01-28T15:03:57.127Z,24.57
2019-01-28T15:06:25.140Z,23.62
2019-01-28T15:08:53.234Z,25.52
2019-01-28T15:11:21.724Z,25.27
2019-01-28T15:13:51.450Z,24.65
2019-01-28T15:16:19.375Z,26.60
2019-01-28T15:18:50.149Z,25.88
2019-01-28T15:21:19.181Z,27.32
2019-01-28T15:23:49.110Z,25.80
2019-01-28T15:26:17.266Z,29.65
2019-01-28T15:28:47.323Z,27.42
2019-01-28T15:31:15.199Z,29.05
2019-01-28T15:33:43.875Z,29.27
2019-01-28T15:36:12.557Z,30.02
2019-01-28T15:38:40.274Z,29.15
2019-01-28T15:41:08.286Z,26.87
2019-01-28T15:43:36.127Z,28.07
2019-01-28T15:46:04.257Z,28.17
2019-01-28T15:48:32.732Z,27.90
2019-01-28T15:51:02.347Z,28.40
2019-01-28T15:53:31.045Z,31.37
2019-01-28T15:56:00.894Z,32.90
2019-01-28T15:58:28.651Z,32.45
2019-01-28T16:00:56.335Z,31.23
2019-01-28T16:03:24.985Z,34.83
2019-01-28T16:05:55.963Z,31.57
2019-01-28T16:08:23.810Z,30.90
2019-01-28T16:10:52.171Z,31.85
2019-01-28T16:13:19.968Z,75.28
2019-01-28T16:15:49.402Z,32.78
2019-01-28T16:18:17.410Z,49.27
2019-01-28T16:20:45.220Z,34.85
2019-01-28T16:23:13.401Z,33.75
2019-01-28T16:25:41.425Z,30.62
2019-01-28T16:28:09.184Z,31.30
2019-01-28T16:30:37.259Z,49.73
2019-01-28T16:33:05.944Z,36.45
2019-01-28T16:35:34.112Z,37.23
2019-01-28T16:38:04.134Z,33.85
2019-01-28T16:40:33.805Z,37.05
2019-01-28T16:43:04.505Z,33.20
2019-01-28T16:45:33.380Z,33.28
2019-01-28T16:48:02.702Z,35.00
2019-01-28T16:50:31.772Z,34.70
2019-01-28T16:53:00.372Z,36.70
2019-01-28T16:55:28.462Z,37.13
2019-01-28T16:57:57.298Z,34.05
2019-01-28T17:00:28.705Z,33.95
2019-01-28T17:02:57.194Z,33.23
2019-01-28T17:05:25.189Z,32.30
2019-01-28T17:07:53.194Z,35.70
2019-01-28T17:10:21.128Z,35.75
2019-01-28T17:12:49.285Z,34.53
2019-01-28T17:15:17.404Z,34.58
2019-01-28T17:17:46.089Z,34.70
2019-01-28T17:20:17.538Z,37.17
2019-01-28T17:22:45.310Z,34.33
2019-01-28T17:25:15.781Z,36.85
2019-01-28T17:27:43.606Z,34.23
2019-01-28T17:30:19.709Z,32.08
2019-01-28T17:32:47.509Z,35.95
2019-01-28T17:35:15.640Z,35.75
2019-01-28T17:37:43.459Z,36.15
2019-01-28T17:40:13.345Z,38.08
2019-01-28T17:42:45.304Z,39.35
2019-01-28T17:45:14.838Z,39.88
2019-01-28T17:47:42.821Z,33.50
2019-01-28T17:50:11.717Z,34.15
2019-01-28T17:52:39.765Z,31.05
2019-01-28T17:55:08.400Z,31.37
2019-01-28T17:57:37.556Z,27.35
2019-01-28T18:00:11.012Z,29.82
2019-01-28T18:02:42.448Z,32.10
2019-01-28T18:05:11.035Z,36.68
2019-01-28T18:07:39.159Z,32.23
2019-01-28T18:10:09.111Z,35.08
2019-01-28T18:12:39.442Z,35.25
2019-01-28T18:15:10.497Z,32.23
2019-01-28T18:17:38.494Z,33.13
2019-01-28T18:20:08.072Z,30.50
2019-01-28T18:22:42.825Z,30.25
2019-01-28T18:25:11.873Z,35.05
2019-01-28T18:27:42.077Z,31.35
2019-01-28T18:30:27.060Z,34.48
2019-01-28T18:32:55.189Z,33.60
2019-01-28T18:35:23.279Z,34.90
2019-01-28T18:37:50.966Z,34.78
2019-01-28T18:40:19.231Z,33.30
2019-01-28T18:42:46.976Z,33.75
2019-01-28T18:45:18.325Z,32.73
2019-01-28T18:47:45.177Z,35.43
2019-01-28T18:50:14.853Z,37.25
2019-01-28T18:52:45.480Z,39.03
2019-01-28T18:55:15.412Z,36.63
2019-01-28T18:57:43.512Z,42.05
2019-01-28T19:00:23.249Z,58.75
2019-01-28T19:02:51.582Z,44.30
2019-01-28T19:05:49.613Z,39.70
2019-01-28T19:08:46.019Z,44.98
2019-01-28T19:11:36.618Z,47.50
2019-01-28T19:14:23.982Z,44.40
2019-01-28T19:17:09.968Z,42.48
2019-01-28T19:19:55.995Z,37.75
2019-01-28T19:22:25.414Z,37.05
2019-01-28T19:24:54.159Z,35.90
2019-01-28T19:27:22.087Z,38.38
2019-01-28T19:29:49.976Z,37.50
2019-01-28T19:32:19.876Z,38.70
2019-01-28T19:34:47.634Z,32.90
2019-01-28T19:37:15.471Z,31.95
2019-01-28T19:39:43.873Z,32.10
2019-01-28T19:42:11.684Z,34.05
2019-01-28T19:44:39.598Z,42.10
2019-01-28T19:47:07.625Z,38.13
2019-01-28T19:49:35.315Z,35.83
2019-01-28T19:52:05.360Z,33.25
2019-01-28T19:54:33.197Z,32.38
2019-01-28T19:57:03.114Z,40.08
2019-01-28T19:59:30.871Z,43.42
2019-01-28T20:01:59.939Z,47.33
2019-01-28T20:04:27.892Z,41.58
2019-01-28T20:06:55.625Z,34.67
2019-01-28T20:09:23.638Z,36.77
2019-01-28T20:11:51.364Z,38.48
2019-01-28T20:14:20.654Z,35.50
2019-01-28T20:16:48.806Z,46.65
2019-01-28T20:19:20.376Z,42.93
2019-01-28T20:21:49.439Z,45.17
2019-01-28T20:24:17.169Z,44.25
2019-01-28T20:26:47.334Z,42.80
2019-01-28T20:29:20.195Z,46.42
2019-01-28T20:31:47.891Z,50.92
2019-01-28T20:34:16.960Z,50.60
2019-01-28T20:36:44.956Z,42.23
2019-01-28T20:39:12.743Z,51.75
2019-01-28T20:41:40.686Z,53.73
2019-01-28T20:44:08.399Z,55.15
2019-01-28T20:46:36.331Z,56.60
2019-01-28T20:49:04.729Z,57.30
2019-01-28T20:51:32.878Z,55.35
2019-01-28T20:54:04.311Z,54.65
2019-01-28T20:56:32.329Z,56.15
2019-01-28T20:59:00.985Z,54.45
2019-01-28T21:01:28.867Z,45.12
2019-01-28T21:03:56.696Z,42.85
2019-01-28T21:06:24.698Z,52.27
2019-01-28T21:08:54.138Z,55.00
2019-01-28T21:11:21.969Z,47.08
2019-01-28T21:13:49.836Z,46.95
2019-01-28T21:16:19.683Z,45.05
2019-01-28T21:18:47.593Z,38.42
2019-01-28T21:21:17.454Z,40.45
2019-01-28T21:23:45.528Z,39.90
2019-01-28T21:26:14.481Z,40.33
2019-01-28T21:28:43.647Z,37.42
2019-01-28T21:31:13.469Z,35.33
2019-01-28T21:33:41.781Z,37.20
2019-01-28T21:36:22.497Z,35.73
2019-01-28T21:38:51.925Z,39.55
2019-01-28T21:41:20.170Z,40.30
2019-01-28T21:43:47.979Z,41.88
2019-01-28T21:46:15.948Z,38.78
2019-01-28T21:48:44.920Z,44.08
2019-01-28T21:51:14.938Z,44.65
2019-01-28T21:53:43.953Z,43.52
2019-01-28T21:56:11.904Z,46.70
2019-01-28T21:58:40.055Z,40.65
2019-01-28T22:01:08.139Z,46.15
2019-01-28T22:03:36.321Z,47.93
2019-01-28T22:06:05.488Z,46.88
2019-01-28T22:08:33.157Z,41.70
2019-01-28T22:11:01.895Z,42.50
2019-01-28T22:13:30.959Z,44.23
2019-01-28T22:15:58.859Z,41.50
2019-01-28T22:18:27.095Z,39.40
2019-01-28T22:20:55.202Z,40.63
2019-01-28T22:23:23.201Z,40.75
2019-01-28T22:25:51.191Z,40.33
2019-01-28T22:28:18.982Z,38.15
2019-01-28T22:30:49.681Z,37.03
2019-01-28T22:33:19.372Z,37.42
2019-01-28T22:35:47.413Z,39.33
2019-01-28T22:38:15.501Z,38.53
2019-01-28T22:40:43.561Z,34.00
2019-01-28T22:43:11.549Z,35.20
2019-01-28T22:45:39.325Z,32.88
2019-01-28T22:48:09.300Z,33.65
2019-01-28T22:50:37.194Z,30.35
2019-01-28T22:53:05.251Z,34.85
2019-01-28T22:55:33.306Z,32.15
2019-01-28T22:58:01.025Z,33.75
2019-01-28T23:00:48.088Z,31.52
2019-01-28T23:03:17.265Z,30.10
2019-01-28T23:05:45.286Z,30.55
2019-01-28T23:08:17.812Z,28.87
2019-01-28T23:10:46.117Z,27.95
2019-01-28T23:13:15.016Z,32.78
2019-01-28T23:15:43.894Z,30.95
2019-01-28T23:18:12.007Z,33.50
2019-01-28T23:20:39.935Z,32.70
2019-01-28T23:23:08.159Z,30.35
2019-01-28T23:25:35.982Z,29.92
2019-01-28T23:28:05.349Z,31.25
2019-01-28T23:30:33.418Z,29.27
2019-01-28T23:33:02.301Z,30.40
2019-01-28T23:35:31.098Z,30.80
2019-01-28T23:38:00.165Z,30.60
2019-01-28T23:40:27.860Z,29.87
2019-01-28T23:43:02.056Z,29.37
2019-01-28T23:45:29.978Z,29.60
2019-01-28T23:47:57.811Z,28.47
2019-01-28T23:50:25.628Z,26.62
2019-01-28T23:52:53.535Z,24.02
2019-01-28T23:55:21.463Z,27.15
2019-01-28T23:57:56.634Z,23.95
